createdAt,value
2022-09-02T00:02:51.297Z,17.73
2022-09-02T00:09:11.250Z,17.7
2022-09-02T00:15:34.156Z,17.66
2022-09-02T00:21:54.165Z,17.62
2022-09-02T00:28:17.140Z,17.57
2022-09-02T00:34:37.158Z,17.51
2022-09-02T00:41:00.167Z,17.43
2022-09-02T00:47:20.161Z,17.33
2022-09-02T00:53:43.151Z,17.25
2022-09-02T01:00:03.186Z,17.17
2022-09-02T01:06:26.146Z,17.11
2022-09-02T01:12:46.147Z,17.06
2022-09-02T01:19:09.141Z,16.97
2022-09-02T01:25:29.182Z,16.87
2022-09-02T01:31:52.215Z,16.79
2022-09-02T01:38:12.148Z,16.75
2022-09-02T01:44:35.172Z,16.65
2022-09-02T01:50:55.175Z,16.56
2022-09-02T01:57:18.180Z,16.48
2022-09-02T02:03:38.155Z,16.37
2022-09-02T02:10:01.189Z,16.3
2022-09-02T02:16:21.205Z,16.22
2022-09-02T02:22:44.179Z,16.18
2022-09-02T02:29:04.143Z,16.14
2022-09-02T02:35:27.211Z,16.07
2022-09-02T02:41:47.143Z,16.06
2022-09-02T02:48:10.191Z,16.04
2022-09-02T02:54:35.025Z,16.08
2022-09-02T03:00:53.141Z,16.1
2022-09-02T03:07:13.174Z,16.12
2022-09-02T03:13:36.149Z,16.17
2022-09-02T03:19:56.165Z,16.21
2022-09-02T03:26:19.150Z,16.25
2022-09-02T03:32:39.187Z,16.27
2022-09-02T03:39:02.173Z,16.24
2022-09-02T03:45:22.200Z,16.2
2022-09-02T04:08:09.167Z,16.06
2022-09-02T04:14:32.146Z,16.02
2022-09-02T04:20:52.159Z,15.98
2022-09-02T04:27:15.177Z,15.9
2022-09-02T04:33:35.140Z,15.83
2022-09-02T04:39:58.186Z,15.79
2022-09-02T04:46:18.182Z,15.74
2022-09-02T04:52:41.191Z,15.76
2022-09-02T04:59:01.146Z,15.82
2022-09-02T05:05:24.149Z,15.86
2022-09-02T05:11:44.191Z,15.9
2022-09-02T05:18:07.162Z,15.9
2022-09-02T05:24:27.202Z,15.89
2022-09-02T05:30:50.212Z,15.92
2022-09-02T05:37:10.167Z,15.98
2022-09-02T05:43:33.135Z,16.06
2022-09-02T05:49:53.174Z,16.16
2022-09-02T05:56:16.197Z,16.26
2022-09-02T06:02:36.213Z,16.41
2022-09-02T06:08:59.186Z,16.53
2022-09-02T06:15:19.156Z,16.7
2022-09-02T06:21:42.159Z,16.88
2022-09-02T06:28:06.497Z,17.07
2022-09-02T06:34:25.152Z,17.25
2022-09-02T06:40:45.246Z,17.4
2022-09-02T06:47:08.178Z,17.56
2022-09-02T06:53:28.140Z,17.73
2022-09-02T06:59:51.170Z,17.95
2022-09-02T07:06:11.146Z,18.22
2022-09-02T07:12:34.177Z,18.51
2022-09-02T07:18:54.150Z,18.74
2022-09-02T07:25:17.160Z,18.89
2022-09-02T07:31:37.190Z,19.01
2022-09-02T07:38:00.141Z,19.14
2022-09-02T07:44:20.164Z,19.27
2022-09-02T07:50:43.192Z,19.39
2022-09-02T07:57:03.168Z,19.59
2022-09-02T08:03:26.192Z,19.82
2022-09-02T08:09:46.157Z,20.05
2022-09-02T08:16:09.189Z,20.31
2022-09-02T08:22:29.183Z,20.61
2022-09-02T08:28:52.140Z,20.89
2022-09-02T08:35:12.185Z,21.16
2022-09-02T08:41:35.158Z,21.37
2022-09-02T08:47:55.168Z,21.65
2022-09-02T08:54:18.142Z,21.95
2022-09-02T09:00:38.153Z,22.28
2022-09-02T09:07:01.182Z,22.6
2022-09-02T09:13:21.147Z,22.92
2022-09-02T09:19:44.180Z,23.22
2022-09-02T09:26:04.152Z,23.51
2022-09-02T09:32:27.376Z,23.72
2022-09-02T09:48:18.172Z,24.41
2022-09-02T09:54:38.136Z,24.77
2022-09-02T10:01:01.180Z,25.02
2022-09-02T10:07:21.141Z,25.31
2022-09-02T10:13:44.143Z,25.67
2022-09-02T10:20:04.503Z,26.1
2022-09-02T10:26:27.222Z,26.12
2022-09-02T10:32:47.172Z,26.03
2022-09-02T10:39:10.139Z,25.84
2022-09-02T10:45:30.180Z,25.61
2022-09-02T10:51:53.149Z,25.48
2022-09-02T10:58:13.152Z,25.53
2022-09-02T11:04:37.325Z,25.64
2022-09-02T11:10:57.149Z,25.76
2022-09-02T11:17:20.422Z,25.87
2022-09-02T11:23:40.143Z,25.91
2022-09-02T11:30:03.177Z,26.13
2022-09-02T11:36:23.160Z,26.71
2022-09-02T11:42:46.150Z,27.21
2022-09-02T11:49:06.176Z,27.54
2022-09-02T11:55:29.146Z,27.96
2022-09-02T12:01:49.159Z,28.39
2022-09-02T12:08:12.449Z,28.56
2022-09-02T12:14:32.743Z,28.6
2022-09-02T12:20:55.178Z,28.83
2022-09-02T12:27:15.148Z,28.96
2022-09-02T12:33:38.184Z,28.78
2022-09-02T12:39:58.144Z,29.08
2022-09-02T12:46:21.192Z,29.3
2022-09-02T12:52:41.174Z,29.48
2022-09-02T12:59:04.139Z,29.74
2022-09-02T13:05:24.177Z,29.91
2022-09-02T13:11:47.149Z,30.08
2022-09-02T13:18:07.151Z,30.02
2022-09-02T13:24:30.176Z,30.07
2022-09-02T13:30:50.212Z,30.17
2022-09-02T13:37:13.175Z,30.18
2022-09-02T13:43:33.148Z,29.94
2022-09-02T13:49:56.148Z,29.67
2022-09-02T13:56:16.160Z,29.81
2022-09-02T14:02:39.295Z,29.67
2022-09-02T14:08:59.168Z,29.38
2022-09-02T14:15:22.158Z,29.18
2022-09-02T14:21:42.142Z,29.07
2022-09-02T14:28:05.184Z,28.94
2022-09-02T14:34:25.135Z,28.66
2022-09-02T14:40:48.171Z,28.41
2022-09-02T14:47:08.140Z,28.35
2022-09-02T14:53:31.155Z,28.21
2022-09-02T14:59:51.177Z,27.98
2022-09-02T15:06:15.298Z,27.74
2022-09-02T15:12:34.170Z,27.5
2022-09-02T15:18:57.147Z,27.37
2022-09-02T15:25:17.142Z,27.27
2022-09-02T15:31:40.190Z,27.15
2022-09-02T15:48:06.156Z,27.05
2022-09-02T15:54:29.221Z,27.06
2022-09-02T16:00:49.188Z,27.07
2022-09-02T16:07:12.951Z,27.04
2022-09-02T16:13:32.145Z,27.03
2022-09-02T16:19:55.196Z,26.98
2022-09-02T16:26:15.144Z,27.04
2022-09-02T16:32:38.177Z,27.11
2022-09-02T16:38:58.158Z,27.2
2022-09-02T16:45:21.147Z,27.1
2022-09-02T16:51:41.172Z,26.87
2022-09-02T16:58:04.146Z,26.62
2022-09-02T17:04:24.140Z,26.39
2022-09-02T17:10:47.168Z,26.08
2022-09-02T17:17:07.173Z,25.73
2022-09-02T17:23:30.175Z,25.49
2022-09-02T17:29:50.434Z,25.26
2022-09-02T17:36:13.148Z,25.04
2022-09-02T17:42:33.180Z,24.85
2022-09-02T17:49:15.639Z,24.67
2022-09-02T17:55:16.169Z,24.41
2022-09-02T18:01:39.190Z,24.14
2022-09-02T18:07:59.155Z,23.93
2022-09-02T18:14:22.176Z,23.75
2022-09-02T18:20:42.148Z,23.51
2022-09-02T18:27:05.178Z,23.23
2022-09-02T18:33:25.145Z,22.92
2022-09-02T18:39:48.223Z,22.6
2022-09-02T18:46:08.229Z,22.35
2022-09-02T18:52:31.143Z,22.17
2022-09-02T18:58:51.172Z,21.99
2022-09-02T19:05:14.156Z,21.75
2022-09-02T19:11:34.147Z,21.56
2022-09-02T19:17:57.163Z,21.43
2022-09-02T19:24:17.134Z,21.27
2022-09-02T19:30:40.384Z,21.07
2022-09-02T19:37:00.156Z,20.9
2022-09-02T19:43:23.129Z,20.77
2022-09-02T19:49:43.160Z,20.63
2022-09-02T19:56:06.145Z,20.48
2022-09-02T20:02:26.210Z,20.36
2022-09-02T20:08:49.151Z,20.19
2022-09-02T20:15:09.138Z,20.05
2022-09-02T20:21:32.185Z,19.92
2022-09-02T20:27:52.127Z,19.79
2022-09-02T20:34:15.149Z,19.67
2022-09-02T20:40:35.176Z,19.51
2022-09-02T20:46:58.212Z,19.39
2022-09-02T20:53:18.165Z,19.25
2022-09-02T20:59:41.450Z,19.11
2022-09-02T21:06:01.144Z,19
2022-09-02T21:12:24.195Z,18.88
2022-09-02T21:18:44.147Z,18.78
2022-09-02T21:25:07.191Z,18.66
2022-09-02T21:31:27.202Z,18.52
2022-09-02T21:48:25.228Z,18.23
2022-09-02T21:54:45.135Z,18.09
2022-09-02T22:20:19.170Z,17.77
2022-09-02T22:26:39.154Z,17.73
2022-09-02T22:33:02.167Z,17.66
2022-09-02T22:39:22.182Z,17.54
2022-09-02T22:45:45.195Z,17.4
2022-09-02T22:52:05.141Z,17.31
2022-09-02T22:58:28.145Z,17.24
2022-09-02T23:04:48.201Z,17.16
2022-09-02T23:11:11.159Z,17.08
2022-09-02T23:17:31.167Z,17.01
2022-09-02T23:23:54.156Z,16.9
2022-09-02T23:30:14.568Z,16.83
2022-09-02T23:36:37.169Z,16.77
2022-09-02T23:42:57.169Z,16.72
2022-09-02T23:49:20.166Z,16.65
2022-09-02T23:55:40.154Z,16.62
